sensor_id;sensor_type;location;lat;lon;timestamp;temperature;humidity
10386;DHT22;34307;51.332;12.334;2022-09-16T04:31:23;10.80;99.90
10386;DHT22;34307;51.332;12.334;2022-09-16T04:33:51;10.60;99.90
10386;DHT22;34307;51.332;12.334;2022-09-16T04:36:19;10.70;99.90
10386;DHT22;34307;51.332;12.334;2022-09-16T04:38:48;10.70;99.90
10386;DHT22;34307;51.332;12.334;2022-09-16T04:41:17;10.80;99.90
10386;DHT22;34307;51.332;12.334;2022-09-16T04:43:49;10.80;99.90
10386;DHT22;34307;51.332;12.334;2022-09-16T04:46:17;10.90;99.90
10386;DHT22;34307;51.332;12.334;2022-09-16T04:48:47;10.90;99.90
10386;DHT22;34307;51.332;12.334;2022-09-16T04:51:16;11.00;99.90
10386;DHT22;34307;51.332;12.334;2022-09-16T04:53:45;11.00;99.90
10386;DHT22;34307;51.332;12.334;2022-09-16T04:56:15;11.00;99.90
10386;DHT22;34307;51.332;12.334;2022-09-16T04:58:44;10.90;99.90
10386;DHT22;34307;51.332;12.334;2022-09-16T08:47:34;14.30;99.90
10386;DHT22;34307;51.332;12.334;2022-09-16T08:57:25;14.20;99.90
10386;DHT22;34307;51.332;12.334;2022-09-16T08:59:56;14.30;99.90
10386;DHT22;34307;51.332;12.334;2022-09-16T09:02:37;14.50;99.90
10386;DHT22;34307;51.332;12.334;2022-09-16T09:05:17;14.90;99.90
10386;DHT22;34307;51.332;12.334;2022-09-16T09:07:57;14.90;99.90
10386;DHT22;34307;51.332;12.334;2022-09-16T09:10:39;14.80;99.90
10386;DHT22;34307;51.332;12.334;2022-09-16T09:27:25;12.50;99.90
10386;DHT22;34307;51.332;12.334;2022-09-16T09:30:04;12.50;99.90
10386;DHT22;34307;51.332;12.334;2022-09-16T09:32:46;12.70;99.90
10386;DHT22;34307;51.332;12.334;2022-09-16T09:35:26;12.90;99.90
10386;DHT22;34307;51.332;12.334;2022-09-16T09:41:09;13.50;99.90
10386;DHT22;34307;51.332;12.334;2022-09-16T09:43:42;14.00;99.90
10386;DHT22;34307;51.332;12.334;2022-09-16T09:46:16;14.30;99.90
10386;DHT22;34307;51.332;12.334;2022-09-16T09:48:48;14.50;99.90
10386;DHT22;34307;51.332;12.334;2022-09-16T09:51:23;14.40;99.90
10386;DHT22;34307;51.332;12.334;2022-09-16T09:53:57;14.20;99.90
10386;DHT22;34307;51.332;12.334;2022-09-16T10:03:50;14.10;99.90
10386;DHT22;34307;51.332;12.334;2022-09-16T10:06:24;14.20;99.90
10386;DHT22;34307;51.332;12.334;2022-09-16T10:08:55;14.30;99.90
10386;DHT22;34307;51.332;12.334;2022-09-16T10:11:28;14.40;99.90
10386;DHT22;34307;51.332;12.334;2022-09-16T10:28:25;15.00;99.90
10386;DHT22;34307;51.332;12.334;2022-09-16T10:30:55;15.00;99.90
10386;DHT22;34307;51.332;12.334;2022-09-16T10:40:54;14.80;99.90
10386;DHT22;34307;51.332;12.334;2022-09-16T10:43:24;14.90;96.70
10386;DHT22;34307;51.332;12.334;2022-09-16T10:45:53;15.10;99.90
10386;DHT22;34307;51.332;12.334;2022-09-16T10:55:39;15.60;85.60
10386;DHT22;34307;51.332;12.334;2022-09-16T10:58:12;16.00;81.10
10386;DHT22;34307;51.332;12.334;2022-09-16T11:00:47;16.30;74.70
10386;DHT22;34307;51.332;12.334;2022-09-16T11:03:42;16.00;62.60
10386;DHT22;34307;51.332;12.334;2022-09-16T11:06:25;16.10;57.10
10386;DHT22;34307;51.332;12.334;2022-09-16T11:09:04;16.60;58.10
10386;DHT22;34307;51.332;12.334;2022-09-16T11:11:45;16.70;56.10
10386;DHT22;34307;51.332;12.334;2022-09-16T11:14:24;16.70;57.80
10386;DHT22;34307;51.332;12.334;2022-09-16T11:17:09;16.60;54.70
10386;DHT22;34307;51.332;12.334;2022-09-16T11:19:57;16.80;50.50
10386;DHT22;34307;51.332;12.334;2022-09-16T11:22:33;16.60;54.80
10386;DHT22;34307;51.332;12.334;2022-09-16T11:28:22;17.20;57.80
10386;DHT22;34307;51.332;12.334;2022-09-16T11:30:58;17.60;52.90
10386;DHT22;34307;51.332;12.334;2022-09-16T11:33:35;18.10;46.10
10386;DHT22;34307;51.332;12.334;2022-09-16T11:39:10;17.10;44.40
10386;DHT22;34307;51.332;12.334;2022-09-16T11:41:46;16.60;48.70
10386;DHT22;34307;51.332;12.334;2022-09-16T11:44:32;16.40;54.40
10386;DHT22;34307;51.332;12.334;2022-09-16T11:50:17;16.30;59.40
10386;DHT22;34307;51.332;12.334;2022-09-16T11:53:11;16.00;62.00
10386;DHT22;34307;51.332;12.334;2022-09-16T11:55:50;15.70;60.80
10386;DHT22;34307;51.332;12.334;2022-09-16T11:58:25;15.60;63.60
10386;DHT22;34307;51.332;12.334;2022-09-16T12:00:58;15.60;66.00
10386;DHT22;34307;51.332;12.334;2022-09-16T12:03:33;15.60;65.30
10386;DHT22;34307;51.332;12.334;2022-09-16T12:06:08;15.40;64.40
10386;DHT22;34307;51.332;12.334;2022-09-16T12:08:47;15.20;76.60
10386;DHT22;34307;51.332;12.334;2022-09-16T12:11:19;15.10;81.00
10386;DHT22;34307;51.332;12.334;2022-09-16T12:13:50;14.80;91.40
10386;DHT22;34307;51.332;12.334;2022-09-16T12:16:38;14.70;87.30
10386;DHT22;34307;51.332;12.334;2022-09-16T12:19:12;14.50;91.30
10386;DHT22;34307;51.332;12.334;2022-09-16T12:21:46;14.30;91.50
10386;DHT22;34307;51.332;12.334;2022-09-16T12:24:19;14.20;90.00
10386;DHT22;34307;51.332;12.334;2022-09-16T12:26:56;14.90;95.60
10386;DHT22;34307;51.332;12.334;2022-09-16T12:29:30;15.70;74.40
10386;DHT22;34307;51.332;12.334;2022-09-16T12:32:06;15.60;81.50
10386;DHT22;34307;51.332;12.334;2022-09-16T12:34:38;15.70;80.80
10386;DHT22;34307;51.332;12.334;2022-09-16T12:37:22;16.00;75.00
10386;DHT22;34307;51.332;12.334;2022-09-16T12:39:52;16.10;75.90
10386;DHT22;34307;51.332;12.334;2022-09-16T12:51:49;16.90;48.10
10386;DHT22;34307;51.332;12.334;2022-09-16T12:54:53;17.00;45.10
10386;DHT22;34307;51.332;12.334;2022-09-16T12:57:43;17.40;43.10
10386;DHT22;34307;51.332;12.334;2022-09-16T13:00:18;17.80;38.20
10386;DHT22;34307;51.332;12.334;2022-09-16T13:02:49;17.80;31.90
10386;DHT22;34307;51.332;12.334;2022-09-16T13:05:24;17.40;33.70
10386;DHT22;34307;51.332;12.334;2022-09-16T13:08:01;17.70;32.30
10386;DHT22;34307;51.332;12.334;2022-09-16T13:10:31;17.60;35.80
10386;DHT22;34307;51.332;12.334;2022-09-16T13:13:28;17.60;33.70
10386;DHT22;34307;51.332;12.334;2022-09-16T13:15:58;17.50;36.00
10386;DHT22;34307;51.332;12.334;2022-09-16T13:18:39;17.50;38.80
10386;DHT22;34307;51.332;12.334;2022-09-16T13:21:18;17.80;41.90
10386;DHT22;34307;51.332;12.334;2022-09-16T13:23:52;18.40;34.10
10386;DHT22;34307;51.332;12.334;2022-09-16T13:26:24;19.00;32.30
10386;DHT22;34307;51.332;12.334;2022-09-16T13:28:52;18.30;29.50
10386;DHT22;34307;51.332;12.334;2022-09-16T13:31:28;18.60;35.10
10386;DHT22;34307;51.332;12.334;2022-09-16T13:34:14;19.10;29.90
10386;DHT22;34307;51.332;12.334;2022-09-16T13:36:44;18.60;30.60
10386;DHT22;34307;51.332;12.334;2022-09-16T13:39:14;18.50;30.20
10386;DHT22;34307;51.332;12.334;2022-09-16T13:41:44;18.60;35.40
10386;DHT22;34307;51.332;12.334;2022-09-16T13:44:29;19.00;30.10
10386;DHT22;34307;51.332;12.334;2022-09-16T13:47:15;18.80;28.70
10386;DHT22;34307;51.332;12.334;2022-09-16T13:49:48;19.10;25.90
10386;DHT22;34307;51.332;12.334;2022-09-16T13:52:23;19.30;25.70
10386;DHT22;34307;51.332;12.334;2022-09-16T13:54:52;19.30;21.70
10386;DHT22;34307;51.332;12.334;2022-09-16T13:57:59;19.00;19.50
10386;DHT22;34307;51.332;12.334;2022-09-16T14:00:34;18.90;17.60
10386;DHT22;34307;51.332;12.334;2022-09-16T14:06:14;19.40;14.80
10386;DHT22;34307;51.332;12.334;2022-09-16T14:08:53;20.20;15.90
10386;DHT22;34307;51.332;12.334;2022-09-16T14:11:32;20.50;11.90
10386;DHT22;34307;51.332;12.334;2022-09-16T14:14:05;20.20;7.60
10386;DHT22;34307;51.332;12.334;2022-09-16T14:16:50;20.30;8.90
10386;DHT22;34307;51.332;12.334;2022-09-16T14:19:24;19.80;6.70
10386;DHT22;34307;51.332;12.334;2022-09-16T14:22:00;20.30;5.50
10386;DHT22;34307;51.332;12.334;2022-09-16T14:24:34;20.10;5.20
10386;DHT22;34307;51.332;12.334;2022-09-16T14:27:03;20.80;3.50
10386;DHT22;34307;51.332;12.334;2022-09-16T14:29:32;21.10;4.60
10386;DHT22;34307;51.332;12.334;2022-09-16T14:32:02;20.80;1.00
10386;DHT22;34307;51.332;12.334;2022-09-16T14:34:34;19.80;1.20
10386;DHT22;34307;51.332;12.334;2022-09-16T14:37:03;19.50;1.90
10386;DHT22;34307;51.332;12.334;2022-09-16T14:39:43;19.60;5.80
10386;DHT22;34307;51.332;12.334;2022-09-16T14:42:15;20.10;4.50
10386;DHT22;34307;51.332;12.334;2022-09-16T14:44:46;20.10;1.00
10386;DHT22;34307;51.332;12.334;2022-09-16T14:47:20;19.50;1.00
10386;DHT22;34307;51.332;12.334;2022-09-16T14:50:14;19.10;1.00
10386;DHT22;34307;51.332;12.334;2022-09-16T14:52:52;19.00;1.00
10386;DHT22;34307;51.332;12.334;2022-09-16T14:55:25;19.30;1.00
10386;DHT22;34307;51.332;12.334;2022-09-16T14:57:56;19.40;1.00
10386;DHT22;34307;51.332;12.334;2022-09-16T15:00:27;20.20;1.00
10386;DHT22;34307;51.332;12.334;2022-09-16T15:03:00;19.50;1.00
10386;DHT22;34307;51.332;12.334;2022-09-16T15:05:32;19.40;1.00
10386;DHT22;34307;51.332;12.334;2022-09-16T15:08:07;19.10;1.00
10386;DHT22;34307;51.332;12.334;2022-09-16T15:10:45;19.50;1.00
10386;DHT22;34307;51.332;12.334;2022-09-16T15:13:24;19.10;1.00
10386;DHT22;34307;51.332;12.334;2022-09-16T15:15:54;19.90;1.00
10386;DHT22;34307;51.332;12.334;2022-09-16T15:18:26;20.50;1.00
10386;DHT22;34307;51.332;12.334;2022-09-16T15:21:02;18.30;1.00
10386;DHT22;34307;51.332;12.334;2022-09-16T15:23:32;17.10;2.00
10386;DHT22;34307;51.332;12.334;2022-09-16T15:26:11;16.70;11.90
10386;DHT22;34307;51.332;12.334;2022-09-16T15:28:54;16.60;19.20
10386;DHT22;34307;51.332;12.334;2022-09-16T15:31:31;17.00;23.60
10386;DHT22;34307;51.332;12.334;2022-09-16T15:34:03;17.30;19.90
10386;DHT22;34307;51.332;12.334;2022-09-16T15:36:37;17.40;20.70
10386;DHT22;34307;51.332;12.334;2022-09-16T15:39:20;16.90;18.60
10386;DHT22;34307;51.332;12.334;2022-09-16T15:42:02;17.70;13.30
10386;DHT22;34307;51.332;12.334;2022-09-16T15:44:32;18.20;10.90
10386;DHT22;34307;51.332;12.334;2022-09-16T15:47:03;18.40;6.30
10386;DHT22;34307;51.332;12.334;2022-09-16T15:49:36;18.80;1.00
10386;DHT22;34307;51.332;12.334;2022-09-16T15:52:08;19.20;1.00
10386;DHT22;34307;51.332;12.334;2022-09-16T15:54:45;19.50;1.00
10386;DHT22;34307;51.332;12.334;2022-09-16T15:57:25;18.90;1.00
10386;DHT22;34307;51.332;12.334;2022-09-16T15:59:57;18.90;1.00
10386;DHT22;34307;51.332;12.334;2022-09-16T16:02:37;19.20;1.00
10386;DHT22;34307;51.332;12.334;2022-09-16T16:05:08;19.10;1.00
10386;DHT22;34307;51.332;12.334;2022-09-16T16:07:40;19.20;1.00
10386;DHT22;34307;51.332;12.334;2022-09-16T16:10:16;19.30;1.00
10386;DHT22;34307;51.332;12.334;2022-09-16T16:12:47;19.00;1.00
10386;DHT22;34307;51.332;12.334;2022-09-16T16:15:17;19.00;1.00
10386;DHT22;34307;51.332;12.334;2022-09-16T16:17:46;19.50;1.00
10386;DHT22;34307;51.332;12.334;2022-09-16T16:20:17;19.10;1.00
10386;DHT22;34307;51.332;12.334;2022-09-16T16:22:45;18.80;1.00
10386;DHT22;34307;51.332;12.334;2022-09-16T16:25:15;18.70;1.00
10386;DHT22;34307;51.332;12.334;2022-09-16T16:27:44;18.40;1.00
10386;DHT22;34307;51.332;12.334;2022-09-16T16:30:14;18.00;1.00
10386;DHT22;34307;51.332;12.334;2022-09-16T16:32:41;17.90;1.00
10386;DHT22;34307;51.332;12.334;2022-09-16T16:35:10;17.80;1.00
10386;DHT22;34307;51.332;12.334;2022-09-16T16:37:38;17.30;1.00
10386;DHT22;34307;51.332;12.334;2022-09-16T16:40:13;17.20;1.00
10386;DHT22;34307;51.332;12.334;2022-09-16T16:42:41;16.90;1.00
10386;DHT22;34307;51.332;12.334;2022-09-16T16:45:10;17.00;1.00
10386;DHT22;34307;51.332;12.334;2022-09-16T16:47:42;16.60;1.00
10386;DHT22;34307;51.332;12.334;2022-09-16T16:50:10;16.30;1.00
10386;DHT22;34307;51.332;12.334;2022-09-16T16:52:38;16.20;1.00
10386;DHT22;34307;51.332;12.334;2022-09-16T16:55:07;16.20;1.00
10386;DHT22;34307;51.332;12.334;2022-09-16T16:57:35;16.40;1.00
10386;DHT22;34307;51.332;12.334;2022-09-16T17:00:04;16.60;1.00
10386;DHT22;34307;51.332;12.334;2022-09-16T17:02:33;16.50;1.00
10386;DHT22;34307;51.332;12.334;2022-09-16T17:05:02;16.60;1.00
10386;DHT22;34307;51.332;12.334;2022-09-16T17:07:31;16.30;1.00
10386;DHT22;34307;51.332;12.334;2022-09-16T17:09:59;16.20;1.00
10386;DHT22;34307;51.332;12.334;2022-09-16T17:12:27;15.90;1.70
10386;DHT22;34307;51.332;12.334;2022-09-16T17:14:55;15.80;6.00
10386;DHT22;34307;51.332;12.334;2022-09-16T17:17:23;15.70;5.00
10386;DHT22;34307;51.332;12.334;2022-09-16T17:19:57;15.70;5.90
10386;DHT22;34307;51.332;12.334;2022-09-16T17:22:27;15.70;8.50
10386;DHT22;34307;51.332;12.334;2022-09-16T17:24:55;15.60;10.30
10386;DHT22;34307;51.332;12.334;2022-09-16T17:27:23;15.50;9.70
10386;DHT22;34307;51.332;12.334;2022-09-16T17:29:53;15.40;11.80
10386;DHT22;34307;51.332;12.334;2022-09-16T17:32:21;15.30;11.10
10386;DHT22;34307;51.332;12.334;2022-09-16T17:34:49;15.20;14.60
10386;DHT22;34307;51.332;12.334;2022-09-16T17:37:17;15.10;16.50
10386;DHT22;34307;51.332;12.334;2022-09-16T17:39:47;15.00;16.40
10386;DHT22;34307;51.332;12.334;2022-09-16T17:42:15;14.90;14.80
10386;DHT22;34307;51.332;12.334;2022-09-16T17:44:43;14.90;12.60
10386;DHT22;34307;51.332;12.334;2022-09-16T17:47:11;14.70;11.50
10386;DHT22;34307;51.332;12.334;2022-09-16T17:49:39;14.70;3.90
10386;DHT22;34307;51.332;12.334;2022-09-16T17:52:07;14.60;2.60
10386;DHT22;34307;51.332;12.334;2022-09-16T17:54:35;14.50;2.40
10386;DHT22;34307;51.332;12.334;2022-09-16T17:57:05;14.40;1.10
10386;DHT22;34307;51.332;12.334;2022-09-16T17:59:33;14.30;1.90
10386;DHT22;34307;51.332;12.334;2022-09-16T18:02:03;14.20;2.40
10386;DHT22;34307;51.332;12.334;2022-09-16T18:04:37;14.10;4.20
10386;DHT22;34307;51.332;12.334;2022-09-16T18:07:05;14.00;5.10
10386;DHT22;34307;51.332;12.334;2022-09-16T18:09:33;13.90;6.90
10386;DHT22;34307;51.332;12.334;2022-09-16T18:12:01;13.80;10.50
10386;DHT22;34307;51.332;12.334;2022-09-16T18:14:30;13.60;15.40
10386;DHT22;34307;51.332;12.334;2022-09-16T18:16:59;13.60;16.70
10386;DHT22;34307;51.332;12.334;2022-09-16T18:19:27;13.60;19.70
10386;DHT22;34307;51.332;12.334;2022-09-16T18:21:55;13.50;21.10
10386;DHT22;34307;51.332;12.334;2022-09-16T18:24:23;13.60;23.00
10386;DHT22;34307;51.332;12.334;2022-09-16T18:26:51;13.50;26.70
10386;DHT22;34307;51.332;12.334;2022-09-16T18:29:19;13.40;30.00
10386;DHT22;34307;51.332;12.334;2022-09-16T18:31:49;13.40;34.10
10386;DHT22;34307;51.332;12.334;2022-09-16T18:34:18;13.40;35.90
10386;DHT22;34307;51.332;12.334;2022-09-16T18:36:46;13.40;38.80
10386;DHT22;34307;51.332;12.334;2022-09-16T18:39:15;13.40;41.40
10386;DHT22;34307;51.332;12.334;2022-09-16T18:41:44;13.30;44.30
10386;DHT22;34307;51.332;12.334;2022-09-16T18:44:14;13.20;46.60
10386;DHT22;34307;51.332;12.334;2022-09-16T18:46:43;13.20;48.80
10386;DHT22;34307;51.332;12.334;2022-09-16T18:49:13;13.10;50.30
10386;DHT22;34307;51.332;12.334;2022-09-16T18:51:43;13.00;53.90
10386;DHT22;34307;51.332;12.334;2022-09-16T18:54:18;12.90;56.50
10386;DHT22;34307;51.332;12.334;2022-09-16T18:56:50;12.80;57.90
10386;DHT22;34307;51.332;12.334;2022-09-16T18:59:20;12.80;59.80
10386;DHT22;34307;51.332;12.334;2022-09-16T19:01:51;12.70;63.20
10386;DHT22;34307;51.332;12.334;2022-09-16T19:04:24;12.70;65.20
10386;DHT22;34307;51.332;12.334;2022-09-16T19:06:54;12.70;68.20
10386;DHT22;34307;51.332;12.334;2022-09-16T19:09:25;12.60;70.40
10386;DHT22;34307;51.332;12.334;2022-09-16T19:11:53;12.60;72.20
10386;DHT22;34307;51.332;12.334;2022-09-16T19:14:21;12.50;75.40
10386;DHT22;34307;51.332;12.334;2022-09-16T19:16:53;12.60;76.10
10386;DHT22;34307;51.332;12.334;2022-09-16T19:19:23;12.50;77.00
10386;DHT22;34307;51.332;12.334;2022-09-16T19:21:51;12.60;78.20
10386;DHT22;34307;51.332;12.334;2022-09-16T19:24:20;12.60;79.30
10386;DHT22;34307;51.332;12.334;2022-09-16T19:26:52;12.60;80.20
10386;DHT22;34307;51.332;12.334;2022-09-16T19:29:21;12.70;82.50
10386;DHT22;34307;51.332;12.334;2022-09-16T19:31:52;12.80;82.30
10386;DHT22;34307;51.332;12.334;2022-09-16T19:34:20;12.90;82.70
10386;DHT22;34307;51.332;12.334;2022-09-16T19:36:50;12.90;81.00
10386;DHT22;34307;51.332;12.334;2022-09-16T19:39:18;13.00;77.30
10386;DHT22;34307;51.332;12.334;2022-09-16T19:41:47;13.00;74.10
10386;DHT22;34307;51.332;12.334;2022-09-16T19:44:16;13.10;74.30
10386;DHT22;34307;51.332;12.334;2022-09-16T19:46:44;13.00;72.20
10386;DHT22;34307;51.332;12.334;2022-09-16T19:49:17;13.00;74.20
10386;DHT22;34307;51.332;12.334;2022-09-16T19:51:46;12.90;74.00
10386;DHT22;34307;51.332;12.334;2022-09-16T19:54:16;12.90;77.30
10386;DHT22;34307;51.332;12.334;2022-09-16T19:56:45;12.90;78.80
10386;DHT22;34307;51.332;12.334;2022-09-16T19:59:17;12.70;83.40
10386;DHT22;34307;51.332;12.334;2022-09-16T20:01:45;12.60;85.50
10386;DHT22;34307;51.332;12.334;2022-09-16T20:04:13;12.50;88.60
10386;DHT22;34307;51.332;12.334;2022-09-16T20:06:45;12.50;89.40
10386;DHT22;34307;51.332;12.334;2022-09-16T20:09:14;12.50;91.00
10386;DHT22;34307;51.332;12.334;2022-09-16T20:11:45;12.40;92.50
10386;DHT22;34307;51.332;12.334;2022-09-16T20:14:15;12.30;92.90
10386;DHT22;34307;51.332;12.334;2022-09-16T20:16:45;12.30;93.30
10386;DHT22;34307;51.332;12.334;2022-09-16T20:19:15;12.30;92.90
10386;DHT22;34307;51.332;12.334;2022-09-16T20:21:43;12.30;93.70
10386;DHT22;34307;51.332;12.334;2022-09-16T20:24:13;12.30;94.90
10386;DHT22;34307;51.332;12.334;2022-09-16T20:26:43;12.30;95.80
10386;DHT22;34307;51.332;12.334;2022-09-16T20:29:11;12.20;96.80
10386;DHT22;34307;51.332;12.334;2022-09-16T20:31:40;12.20;97.60
10386;DHT22;34307;51.332;12.334;2022-09-16T20:34:09;12.10;98.20
10386;DHT22;34307;51.332;12.334;2022-09-16T20:36:38;12.10;98.80
10386;DHT22;34307;51.332;12.334;2022-09-16T20:39:07;11.90;99.90
10386;DHT22;34307;51.332;12.334;2022-09-16T20:41:37;12.00;99.00
10386;DHT22;34307;51.332;12.334;2022-09-16T20:44:11;12.00;99.90
10386;DHT22;34307;51.332;12.334;2022-09-16T20:46:39;11.90;99.90
10386;DHT22;34307;51.332;12.334;2022-09-16T20:49:09;11.80;99.90
10386;DHT22;34307;51.332;12.334;2022-09-16T20:51:40;11.60;99.90
10386;DHT22;34307;51.332;12.334;2022-09-16T20:54:10;11.60;99.90
10386;DHT22;34307;51.332;12.334;2022-09-16T20:56:40;11.60;99.90
10386;DHT22;34307;51.332;12.334;2022-09-16T20:59:11;11.50;99.90
10386;DHT22;34307;51.332;12.334;2022-09-16T21:01:40;11.50;99.90
10386;DHT22;34307;51.332;12.334;2022-09-16T21:04:11;11.60;99.90
10386;DHT22;34307;51.332;12.334;2022-09-16T21:06:40;11.60;99.90
10386;DHT22;34307;51.332;12.334;2022-09-16T21:09:09;11.60;99.90
10386;DHT22;34307;51.332;12.334;2022-09-16T21:11:38;11.70;99.90
10386;DHT22;34307;51.332;12.334;2022-09-16T21:14:13;11.80;99.90
10386;DHT22;34307;51.332;12.334;2022-09-16T21:16:43;11.80;99.90
10386;DHT22;34307;51.332;12.334;2022-09-16T21:19:12;11.80;99.90
10386;DHT22;34307;51.332;12.334;2022-09-16T21:21:42;11.80;99.90
10386;DHT22;34307;51.332;12.334;2022-09-16T21:24:12;11.80;99.90
10386;DHT22;34307;51.332;12.334;2022-09-16T21:26:41;11.90;99.90
10386;DHT22;34307;51.332;12.334;2022-09-16T21:29:13;11.80;99.90
10386;DHT22;34307;51.332;12.334;2022-09-16T21:31:41;11.70;99.90
10386;DHT22;34307;51.332;12.334;2022-09-16T21:34:12;11.70;99.90
10386;DHT22;34307;51.332;12.334;2022-09-16T21:36:41;11.70;99.90
10386;DHT22;34307;51.332;12.334;2022-09-16T21:39:11;11.70;99.90
10386;DHT22;34307;51.332;12.334;2022-09-16T21:41:39;11.60;99.90
10386;DHT22;34307;51.332;12.334;2022-09-16T21:44:08;11.60;99.90
10386;DHT22;34307;51.332;12.334;2022-09-16T21:46:39;11.60;99.90
10386;DHT22;34307;51.332;12.334;2022-09-16T21:49:10;11.60;99.90
10386;DHT22;34307;51.332;12.334;2022-09-16T21:51:48;11.60;99.90
10386;DHT22;34307;51.332;12.334;2022-09-16T21:54:16;11.60;99.90
10386;DHT22;34307;51.332;12.334;2022-09-16T21:56:47;11.50;99.90
10386;DHT22;34307;51.332;12.334;2022-09-16T21:59:15;11.60;99.90
10386;DHT22;34307;51.332;12.334;2022-09-16T22:01:47;11.50;99.90
10386;DHT22;34307;51.332;12.334;2022-09-16T22:04:18;11.60;99.90
10386;DHT22;34307;51.332;12.334;2022-09-16T22:06:46;11.60;99.90
10386;DHT22;34307;51.332;12.334;2022-09-16T22:09:15;11.60;99.90
10386;DHT22;34307;51.332;12.334;2022-09-16T22:11:44;11.60;99.90
10386;DHT22;34307;51.332;12.334;2022-09-16T22:14:12;11.60;99.90
10386;DHT22;34307;51.332;12.334;2022-09-16T22:16:40;11.60;99.90
10386;DHT22;34307;51.332;12.334;2022-09-16T22:19:12;11.60;99.90
10386;DHT22;34307;51.332;12.334;2022-09-16T22:21:41;11.60;99.90
10386;DHT22;34307;51.332;12.334;2022-09-16T22:24:10;11.60;99.90
10386;DHT22;34307;51.332;12.334;2022-09-16T22:26:38;11.60;99.90
10386;DHT22;34307;51.332;12.334;2022-09-16T22:29:08;11.60;99.90
10386;DHT22;34307;51.332;12.334;2022-09-16T22:31:38;11.50;99.90
10386;DHT22;34307;51.332;12.334;2022-09-16T22:34:07;11.50;99.90
10386;DHT22;34307;51.332;12.334;2022-09-16T22:36:37;11.40;99.90
10386;DHT22;34307;51.332;12.334;2022-09-16T22:39:10;11.40;99.90
10386;DHT22;34307;51.332;12.334;2022-09-16T22:41:39;11.40;99.90
10386;DHT22;34307;51.332;12.334;2022-09-16T22:44:07;11.40;99.90
10386;DHT22;34307;51.332;12.334;2022-09-16T22:46:39;11.40;99.90
10386;DHT22;34307;51.332;12.334;2022-09-16T22:49:08;11.40;99.90
10386;DHT22;34307;51.332;12.334;2022-09-16T22:51:37;11.30;99.90
10386;DHT22;34307;51.332;12.334;2022-09-16T22:54:07;11.30;99.90
10386;DHT22;34307;51.332;12.334;2022-09-16T22:56:35;11.30;99.90
10386;DHT22;34307;51.332;12.334;2022-09-16T22:59:04;11.30;99.90
10386;DHT22;34307;51.332;12.334;2022-09-16T23:01:35;11.30;99.90
10386;DHT22;34307;51.332;12.334;2022-09-16T23:04:06;11.20;99.90
10386;DHT22;34307;51.332;12.334;2022-09-16T23:06:35;11.20;99.90
10386;DHT22;34307;51.332;12.334;2022-09-16T23:09:06;11.20;99.90
10386;DHT22;34307;51.332;12.334;2022-09-16T23:11:34;11.20;99.90
10386;DHT22;34307;51.332;12.334;2022-09-16T23:14:03;11.20;99.90
10386;DHT22;34307;51.332;12.334;2022-09-16T23:16:34;11.20;99.90
10386;DHT22;34307;51.332;12.334;2022-09-16T23:19:08;11.20;99.90
10386;DHT22;34307;51.332;12.334;2022-09-16T23:21:37;11.20;99.90
10386;DHT22;34307;51.332;12.334;2022-09-16T23:24:14;11.20;99.90
10386;DHT22;34307;51.332;12.334;2022-09-16T23:26:43;11.30;99.90
10386;DHT22;34307;51.332;12.334;2022-09-16T23:29:13;11.20;99.90
10386;DHT22;34307;51.332;12.334;2022-09-16T23:31:43;11.20;99.90
10386;DHT22;34307;51.332;12.334;2022-09-16T23:34:14;11.10;99.90
10386;DHT22;34307;51.332;12.334;2022-09-16T23:36:42;11.10;99.90
10386;DHT22;34307;51.332;12.334;2022-09-16T23:39:13;11.00;99.90
10386;DHT22;34307;51.332;12.334;2022-09-16T23:41:42;11.00;99.90
10386;DHT22;34307;51.332;12.334;2022-09-16T23:44:12;11.00;99.90
10386;DHT22;34307;51.332;12.334;2022-09-16T23:46:41;11.00;99.90
10386;DHT22;34307;51.332;12.334;2022-09-16T23:49:10;11.00;99.90
10386;DHT22;34307;51.332;12.334;2022-09-16T23:51:38;10.90;99.90
10386;DHT22;34307;51.332;12.334;2022-09-16T23:54:06;10.90;99.90
10386;DHT22;34307;51.332;12.334;2022-09-16T23:56:36;10.80;99.90
10386;DHT22;34307;51.332;12.334;2022-09-16T23:59:04;10.90;99.90
